sensor_id;sensor_type;location;lat;lon;timestamp;temperature;humidity
10192;DHT22;17580;50.850;4.504;2022-10-31T00:02:06;14.60;99.90
10192;DHT22;17580;50.850;4.504;2022-10-31T00:04:35;14.50;99.90
10192;DHT22;17580;50.850;4.504;2022-10-31T00:07:01;14.50;99.90
10192;DHT22;17580;50.850;4.504;2022-10-31T00:09:28;14.50;99.90
10192;DHT22;17580;50.850;4.504;2022-10-31T00:11:55;14.40;99.90
10192;DHT22;17580;50.850;4.504;2022-10-31T00:14:22;14.40;99.90
10192;DHT22;17580;50.850;4.504;2022-10-31T00:16:49;14.40;99.90
10192;DHT22;17580;50.850;4.504;2022-10-31T00:19:16;14.40;99.90
10192;DHT22;17580;50.850;4.504;2022-10-31T00:21:44;14.30;99.90
10192;DHT22;17580;50.850;4.504;2022-10-31T00:24:11;14.30;99.90
10192;DHT22;17580;50.850;4.504;2022-10-31T00:26:38;14.30;99.90
10192;DHT22;17580;50.850;4.504;2022-10-31T00:29:05;14.30;99.90
10192;DHT22;17580;50.850;4.504;2022-10-31T00:31:32;14.30;99.90
10192;DHT22;17580;50.850;4.504;2022-10-31T00:33:59;14.30;99.90
10192;DHT22;17580;50.850;4.504;2022-10-31T00:36:28;14.20;99.90
10192;DHT22;17580;50.850;4.504;2022-10-31T00:38:58;14.10;99.90
10192;DHT22;17580;50.850;4.504;2022-10-31T00:41:25;14.00;99.90
10192;DHT22;17580;50.850;4.504;2022-10-31T00:43:52;13.90;99.90
10192;DHT22;17580;50.850;4.504;2022-10-31T00:46:19;13.90;99.90
10192;DHT22;17580;50.850;4.504;2022-10-31T00:48:45;13.90;99.90
10192;DHT22;17580;50.850;4.504;2022-10-31T00:51:12;13.90;99.90
10192;DHT22;17580;50.850;4.504;2022-10-31T00:53:39;13.90;99.90
10192;DHT22;17580;50.850;4.504;2022-10-31T00:56:08;13.80;99.90
10192;DHT22;17580;50.850;4.504;2022-10-31T00:58:35;13.70;99.90
10192;DHT22;17580;50.850;4.504;2022-10-31T01:01:02;13.70;99.90
10192;DHT22;17580;50.850;4.504;2022-10-31T01:03:30;13.70;99.90
10192;DHT22;17580;50.850;4.504;2022-10-31T01:05:59;13.60;99.90
10192;DHT22;17580;50.850;4.504;2022-10-31T01:08:27;13.60;99.90
10192;DHT22;17580;50.850;4.504;2022-10-31T01:11:03;13.70;99.90
10192;DHT22;17580;50.850;4.504;2022-10-31T01:13:31;13.70;99.90
10192;DHT22;17580;50.850;4.504;2022-10-31T01:15:59;13.80;99.90
10192;DHT22;17580;50.850;4.504;2022-10-31T01:18:27;13.80;99.90
10192;DHT22;17580;50.850;4.504;2022-10-31T01:20:58;13.70;99.90
10192;DHT22;17580;50.850;4.504;2022-10-31T01:23:26;13.70;99.90
10192;DHT22;17580;50.850;4.504;2022-10-31T01:26:06;13.70;99.90
10192;DHT22;17580;50.850;4.504;2022-10-31T01:28:35;13.70;99.90
10192;DHT22;17580;50.850;4.504;2022-10-31T01:31:04;13.70;99.90
10192;DHT22;17580;50.850;4.504;2022-10-31T01:33:31;13.70;99.90
10192;DHT22;17580;50.850;4.504;2022-10-31T01:35:58;13.70;99.90
10192;DHT22;17580;50.850;4.504;2022-10-31T01:38:25;13.70;99.90
10192;DHT22;17580;50.850;4.504;2022-10-31T01:40:52;13.70;99.90
10192;DHT22;17580;50.850;4.504;2022-10-31T01:43:19;13.70;99.90
10192;DHT22;17580;50.850;4.504;2022-10-31T01:45:51;13.70;99.90
10192;DHT22;17580;50.850;4.504;2022-10-31T01:48:24;13.60;99.90
10192;DHT22;17580;50.850;4.504;2022-10-31T01:50:54;13.60;99.90
10192;DHT22;17580;50.850;4.504;2022-10-31T01:53:22;13.50;99.90
10192;DHT22;17580;50.850;4.504;2022-10-31T01:55:50;13.50;99.90
10192;DHT22;17580;50.850;4.504;2022-10-31T01:58:20;13.50;99.90
10192;DHT22;17580;50.850;4.504;2022-10-31T02:00:51;13.40;99.90
10192;DHT22;17580;50.850;4.504;2022-10-31T02:03:20;13.30;99.90
10192;DHT22;17580;50.850;4.504;2022-10-31T02:05:49;13.30;99.90
10192;DHT22;17580;50.850;4.504;2022-10-31T02:08:19;13.20;99.90
10192;DHT22;17580;50.850;4.504;2022-10-31T02:10:47;13.20;99.90
10192;DHT22;17580;50.850;4.504;2022-10-31T02:13:15;13.20;99.90
10192;DHT22;17580;50.850;4.504;2022-10-31T02:15:44;13.00;99.90
10192;DHT22;17580;50.850;4.504;2022-10-31T02:18:13;13.00;99.90
10192;DHT22;17580;50.850;4.504;2022-10-31T02:20:48;13.00;99.90
10192;DHT22;17580;50.850;4.504;2022-10-31T02:32:38;12.80;99.90
10192;DHT22;17580;50.850;4.504;2022-10-31T02:35:11;12.70;99.90
10192;DHT22;17580;50.850;4.504;2022-10-31T02:37:43;12.70;99.90
10192;DHT22;17580;50.850;4.504;2022-10-31T02:40:17;12.70;99.90
10192;DHT22;17580;50.850;4.504;2022-10-31T02:42:53;12.70;99.90
10192;DHT22;17580;50.850;4.504;2022-10-31T02:45:27;12.70;99.90
10192;DHT22;17580;50.850;4.504;2022-10-31T02:47:59;12.80;99.90
10192;DHT22;17580;50.850;4.504;2022-10-31T02:50:31;12.70;99.90
10192;DHT22;17580;50.850;4.504;2022-10-31T02:53:00;12.60;99.90
10192;DHT22;17580;50.850;4.504;2022-10-31T02:55:50;12.60;99.90
10192;DHT22;17580;50.850;4.504;2022-10-31T02:58:19;12.60;99.90
10192;DHT22;17580;50.850;4.504;2022-10-31T03:01:07;12.60;99.90
10192;DHT22;17580;50.850;4.504;2022-10-31T03:03:48;12.50;99.90
10192;DHT22;17580;50.850;4.504;2022-10-31T03:06:20;12.50;99.90
10192;DHT22;17580;50.850;4.504;2022-10-31T03:08:55;12.50;99.90
10192;DHT22;17580;50.850;4.504;2022-10-31T03:11:31;12.50;99.90
10192;DHT22;17580;50.850;4.504;2022-10-31T03:14:04;12.50;99.90
10192;DHT22;17580;50.850;4.504;2022-10-31T03:16:41;12.40;99.90
10192;DHT22;17580;50.850;4.504;2022-10-31T03:19:17;12.40;99.90
10192;DHT22;17580;50.850;4.504;2022-10-31T03:21:48;12.40;99.90
10192;DHT22;17580;50.850;4.504;2022-10-31T03:24:17;12.40;99.90
10192;DHT22;17580;50.850;4.504;2022-10-31T03:26:48;12.40;99.90
10192;DHT22;17580;50.850;4.504;2022-10-31T03:29:19;12.50;99.90
10192;DHT22;17580;50.850;4.504;2022-10-31T03:31:51;12.50;99.90
10192;DHT22;17580;50.850;4.504;2022-10-31T03:34:20;12.50;99.90
10192;DHT22;17580;50.850;4.504;2022-10-31T03:36:50;12.40;99.90
10192;DHT22;17580;50.850;4.504;2022-10-31T03:39:19;12.30;99.90
10192;DHT22;17580;50.850;4.504;2022-10-31T03:41:54;12.30;99.90
10192;DHT22;17580;50.850;4.504;2022-10-31T03:44:22;12.30;99.90
10192;DHT22;17580;50.850;4.504;2022-10-31T03:46:50;12.30;99.90
10192;DHT22;17580;50.850;4.504;2022-10-31T03:49:17;12.30;99.90
10192;DHT22;17580;50.850;4.504;2022-10-31T03:51:49;12.40;99.90
10192;DHT22;17580;50.850;4.504;2022-10-31T03:54:24;12.30;99.90
10192;DHT22;17580;50.850;4.504;2022-10-31T03:56:54;12.20;99.90
10192;DHT22;17580;50.850;4.504;2022-10-31T03:59:26;12.30;99.90
10192;DHT22;17580;50.850;4.504;2022-10-31T04:01:59;12.20;99.90
10192;DHT22;17580;50.850;4.504;2022-10-31T04:04:27;12.10;99.90
10192;DHT22;17580;50.850;4.504;2022-10-31T04:06:58;12.00;99.90
10192;DHT22;17580;50.850;4.504;2022-10-31T04:09:28;12.00;99.90
10192;DHT22;17580;50.850;4.504;2022-10-31T04:11:59;12.00;99.90
10192;DHT22;17580;50.850;4.504;2022-10-31T04:14:30;12.00;99.90
10192;DHT22;17580;50.850;4.504;2022-10-31T04:16:57;12.00;99.90
10192;DHT22;17580;50.850;4.504;2022-10-31T04:19:25;12.00;99.90
10192;DHT22;17580;50.850;4.504;2022-10-31T04:21:52;12.00;99.90
10192;DHT22;17580;50.850;4.504;2022-10-31T04:24:20;12.00;99.90
10192;DHT22;17580;50.850;4.504;2022-10-31T04:26:47;12.00;99.90
10192;DHT22;17580;50.850;4.504;2022-10-31T04:29:14;12.00;99.90
10192;DHT22;17580;50.850;4.504;2022-10-31T04:31:41;12.00;99.90
10192;DHT22;17580;50.850;4.504;2022-10-31T04:34:08;12.00;99.90
10192;DHT22;17580;50.850;4.504;2022-10-31T04:36:35;12.10;99.90
10192;DHT22;17580;50.850;4.504;2022-10-31T04:39:02;12.10;99.90
10192;DHT22;17580;50.850;4.504;2022-10-31T04:41:30;12.10;99.90
10192;DHT22;17580;50.850;4.504;2022-10-31T04:43:57;12.20;99.90
10192;DHT22;17580;50.850;4.504;2022-10-31T04:46:24;12.20;99.90
10192;DHT22;17580;50.850;4.504;2022-10-31T04:48:51;12.20;99.90
10192;DHT22;17580;50.850;4.504;2022-10-31T04:51:18;12.20;99.90
10192;DHT22;17580;50.850;4.504;2022-10-31T04:53:44;12.20;99.90
10192;DHT22;17580;50.850;4.504;2022-10-31T04:56:11;12.20;99.90
10192;DHT22;17580;50.850;4.504;2022-10-31T04:58:40;12.20;99.90
10192;DHT22;17580;50.850;4.504;2022-10-31T05:01:06;12.20;99.90
10192;DHT22;17580;50.850;4.504;2022-10-31T05:03:33;12.10;99.90
10192;DHT22;17580;50.850;4.504;2022-10-31T05:06:00;12.20;99.90
10192;DHT22;17580;50.850;4.504;2022-10-31T05:08:27;12.20;99.90
10192;DHT22;17580;50.850;4.504;2022-10-31T05:10:54;12.10;99.90
10192;DHT22;17580;50.850;4.504;2022-10-31T05:13:21;12.10;99.90
10192;DHT22;17580;50.850;4.504;2022-10-31T05:15:51;12.10;99.90
10192;DHT22;17580;50.850;4.504;2022-10-31T05:18:18;12.10;99.90
10192;DHT22;17580;50.850;4.504;2022-10-31T05:20:44;12.20;99.90
10192;DHT22;17580;50.850;4.504;2022-10-31T05:23:11;12.10;99.90
10192;DHT22;17580;50.850;4.504;2022-10-31T05:25:40;12.10;99.90
10192;DHT22;17580;50.850;4.504;2022-10-31T05:28:07;12.10;99.90
10192;DHT22;17580;50.850;4.504;2022-10-31T05:30:34;12.20;99.90
10192;DHT22;17580;50.850;4.504;2022-10-31T05:33:03;12.20;99.90
10192;DHT22;17580;50.850;4.504;2022-10-31T05:35:31;12.20;99.90
10192;DHT22;17580;50.850;4.504;2022-10-31T05:37:59;12.30;99.90
10192;DHT22;17580;50.850;4.504;2022-10-31T05:40:27;12.30;99.90
10192;DHT22;17580;50.850;4.504;2022-10-31T05:42:55;12.20;99.90
10192;DHT22;17580;50.850;4.504;2022-10-31T05:45:23;12.20;99.90
10192;DHT22;17580;50.850;4.504;2022-10-31T05:47:51;12.20;99.90
10192;DHT22;17580;50.850;4.504;2022-10-31T05:50:20;12.20;99.90
10192;DHT22;17580;50.850;4.504;2022-10-31T05:52:53;12.30;99.90
10192;DHT22;17580;50.850;4.504;2022-10-31T05:55:21;12.30;99.90
10192;DHT22;17580;50.850;4.504;2022-10-31T05:57:47;12.30;99.90
10192;DHT22;17580;50.850;4.504;2022-10-31T06:00:15;12.20;99.90
10192;DHT22;17580;50.850;4.504;2022-10-31T06:02:41;12.20;99.90
10192;DHT22;17580;50.850;4.504;2022-10-31T06:05:08;12.20;99.90
10192;DHT22;17580;50.850;4.504;2022-10-31T06:07:37;12.20;99.90
10192;DHT22;17580;50.850;4.504;2022-10-31T06:10:06;12.20;99.90
10192;DHT22;17580;50.850;4.504;2022-10-31T06:12:35;12.30;99.90
10192;DHT22;17580;50.850;4.504;2022-10-31T06:15:04;12.40;99.90
10192;DHT22;17580;50.850;4.504;2022-10-31T06:17:32;12.40;99.90
10192;DHT22;17580;50.850;4.504;2022-10-31T06:19:59;12.50;99.90
10192;DHT22;17580;50.850;4.504;2022-10-31T06:22:27;12.50;99.90
10192;DHT22;17580;50.850;4.504;2022-10-31T06:24:55;12.50;99.90
10192;DHT22;17580;50.850;4.504;2022-10-31T06:27:22;12.50;99.90
10192;DHT22;17580;50.850;4.504;2022-10-31T06:29:49;12.60;99.90
10192;DHT22;17580;50.850;4.504;2022-10-31T06:32:16;12.50;99.90
10192;DHT22;17580;50.850;4.504;2022-10-31T06:34:44;12.50;99.90
10192;DHT22;17580;50.850;4.504;2022-10-31T06:37:14;12.50;99.90
10192;DHT22;17580;50.850;4.504;2022-10-31T06:39:41;12.50;99.90
10192;DHT22;17580;50.850;4.504;2022-10-31T06:42:09;12.50;99.90
10192;DHT22;17580;50.850;4.504;2022-10-31T06:44:36;12.50;99.90
10192;DHT22;17580;50.850;4.504;2022-10-31T06:47:03;12.60;99.90
10192;DHT22;17580;50.850;4.504;2022-10-31T06:49:31;12.50;99.90
10192;DHT22;17580;50.850;4.504;2022-10-31T06:51:58;12.50;99.90
10192;DHT22;17580;50.850;4.504;2022-10-31T06:54:25;12.60;99.90
10192;DHT22;17580;50.850;4.504;2022-10-31T06:56:52;12.70;99.90
10192;DHT22;17580;50.850;4.504;2022-10-31T06:59:20;12.80;99.90
10192;DHT22;17580;50.850;4.504;2022-10-31T07:01:47;12.80;99.90
10192;DHT22;17580;50.850;4.504;2022-10-31T07:04:14;12.80;99.90
10192;DHT22;17580;50.850;4.504;2022-10-31T07:06:41;12.90;99.90
10192;DHT22;17580;50.850;4.504;2022-10-31T07:09:08;12.90;99.90
10192;DHT22;17580;50.850;4.504;2022-10-31T07:11:35;12.90;99.90
10192;DHT22;17580;50.850;4.504;2022-10-31T07:14:02;12.90;99.90
10192;DHT22;17580;50.850;4.504;2022-10-31T07:16:30;13.00;99.90
10192;DHT22;17580;50.850;4.504;2022-10-31T07:18:57;13.10;99.90
10192;DHT22;17580;50.850;4.504;2022-10-31T07:21:24;13.10;99.90
10192;DHT22;17580;50.850;4.504;2022-10-31T07:23:51;13.10;99.90
10192;DHT22;17580;50.850;4.504;2022-10-31T07:26:18;13.10;99.90
10192;DHT22;17580;50.850;4.504;2022-10-31T07:28:45;13.10;99.90
10192;DHT22;17580;50.850;4.504;2022-10-31T07:31:12;13.20;99.90
10192;DHT22;17580;50.850;4.504;2022-10-31T07:33:41;13.30;99.90
10192;DHT22;17580;50.850;4.504;2022-10-31T07:36:08;13.30;99.90
10192;DHT22;17580;50.850;4.504;2022-10-31T07:38:34;13.30;99.90
10192;DHT22;17580;50.850;4.504;2022-10-31T07:41:01;13.40;99.90
10192;DHT22;17580;50.850;4.504;2022-10-31T07:43:28;13.40;99.90
10192;DHT22;17580;50.850;4.504;2022-10-31T07:45:55;13.40;99.90
10192;DHT22;17580;50.850;4.504;2022-10-31T07:48:22;13.40;99.90
10192;DHT22;17580;50.850;4.504;2022-10-31T07:50:51;13.50;99.90
10192;DHT22;17580;50.850;4.504;2022-10-31T07:53:17;13.50;99.90
10192;DHT22;17580;50.850;4.504;2022-10-31T07:55:44;13.50;99.90
10192;DHT22;17580;50.850;4.504;2022-10-31T07:58:13;13.50;99.90
10192;DHT22;17580;50.850;4.504;2022-10-31T08:00:42;13.50;99.90
10192;DHT22;17580;50.850;4.504;2022-10-31T08:03:10;13.50;99.90
10192;DHT22;17580;50.850;4.504;2022-10-31T08:05:37;13.60;99.90
10192;DHT22;17580;50.850;4.504;2022-10-31T08:08:08;13.60;99.90
10192;DHT22;17580;50.850;4.504;2022-10-31T08:10:35;13.60;99.90
10192;DHT22;17580;50.850;4.504;2022-10-31T08:13:04;13.70;99.90
10192;DHT22;17580;50.850;4.504;2022-10-31T08:15:32;13.80;99.90
10192;DHT22;17580;50.850;4.504;2022-10-31T08:17:59;13.80;99.90
10192;DHT22;17580;50.850;4.504;2022-10-31T08:20:27;13.90;99.90
10192;DHT22;17580;50.850;4.504;2022-10-31T08:22:59;14.00;99.90
10192;DHT22;17580;50.850;4.504;2022-10-31T08:25:29;14.00;99.90
10192;DHT22;17580;50.850;4.504;2022-10-31T08:27:57;14.00;99.90
10192;DHT22;17580;50.850;4.504;2022-10-31T08:30:26;14.00;99.90
10192;DHT22;17580;50.850;4.504;2022-10-31T08:32:58;14.00;99.90
10192;DHT22;17580;50.850;4.504;2022-10-31T08:35:25;14.10;99.90
10192;DHT22;17580;50.850;4.504;2022-10-31T08:37:53;14.10;99.90
10192;DHT22;17580;50.850;4.504;2022-10-31T08:40:21;14.10;99.90
10192;DHT22;17580;50.850;4.504;2022-10-31T08:42:55;14.10;99.90
10192;DHT22;17580;50.850;4.504;2022-10-31T08:45:23;14.10;99.90
10192;DHT22;17580;50.850;4.504;2022-10-31T08:47:50;14.10;99.90
10192;DHT22;17580;50.850;4.504;2022-10-31T08:50:17;14.10;99.90
10192;DHT22;17580;50.850;4.504;2022-10-31T08:52:44;14.10;99.90
10192;DHT22;17580;50.850;4.504;2022-10-31T08:55:11;14.20;99.90
10192;DHT22;17580;50.850;4.504;2022-10-31T08:57:38;14.30;99.90
10192;DHT22;17580;50.850;4.504;2022-10-31T09:00:08;14.40;99.90
10192;DHT22;17580;50.850;4.504;2022-10-31T09:02:35;14.40;99.90
10192;DHT22;17580;50.850;4.504;2022-10-31T09:05:02;14.40;99.90
10192;DHT22;17580;50.850;4.504;2022-10-31T09:07:29;14.50;99.90
10192;DHT22;17580;50.850;4.504;2022-10-31T09:09:57;14.60;99.90
10192;DHT22;17580;50.850;4.504;2022-10-31T09:12:24;14.50;99.90
10192;DHT22;17580;50.850;4.504;2022-10-31T09:14:51;14.50;99.90
10192;DHT22;17580;50.850;4.504;2022-10-31T09:17:19;14.50;99.90
10192;DHT22;17580;50.850;4.504;2022-10-31T09:19:46;14.50;99.90
10192;DHT22;17580;50.850;4.504;2022-10-31T09:22:13;14.60;99.90
10192;DHT22;17580;50.850;4.504;2022-10-31T09:24:40;14.70;99.90
10192;DHT22;17580;50.850;4.504;2022-10-31T09:27:07;14.70;99.90
10192;DHT22;17580;50.850;4.504;2022-10-31T09:29:34;14.70;99.90
10192;DHT22;17580;50.850;4.504;2022-10-31T09:32:01;14.70;99.90
10192;DHT22;17580;50.850;4.504;2022-10-31T09:34:30;14.70;99.90
10192;DHT22;17580;50.850;4.504;2022-10-31T09:36:57;14.70;99.90
10192;DHT22;17580;50.850;4.504;2022-10-31T09:39:23;14.80;99.90
10192;DHT22;17580;50.850;4.504;2022-10-31T09:42:17;14.80;99.90
10192;DHT22;17580;50.850;4.504;2022-10-31T09:45:05;14.80;99.90
10192;DHT22;17580;50.850;4.504;2022-10-31T09:47:41;14.80;99.90
10192;DHT22;17580;50.850;4.504;2022-10-31T09:50:15;14.80;99.90
10192;DHT22;17580;50.850;4.504;2022-10-31T09:52:49;14.80;99.90
10192;DHT22;17580;50.850;4.504;2022-10-31T09:55:23;15.00;99.90
10192;DHT22;17580;50.850;4.504;2022-10-31T09:57:52;15.00;99.90
10192;DHT22;17580;50.850;4.504;2022-10-31T10:00:21;15.20;99.90
10192;DHT22;17580;50.850;4.504;2022-10-31T10:02:53;15.20;99.90
10192;DHT22;17580;50.850;4.504;2022-10-31T10:05:27;15.30;99.90
10192;DHT22;17580;50.850;4.504;2022-10-31T10:08:01;15.50;99.90
10192;DHT22;17580;50.850;4.504;2022-10-31T10:10:38;15.50;99.90
10192;DHT22;17580;50.850;4.504;2022-10-31T10:13:32;15.60;99.90
10192;DHT22;17580;50.850;4.504;2022-10-31T10:16:10;15.70;99.90
10192;DHT22;17580;50.850;4.504;2022-10-31T10:18:50;15.70;99.90
10192;DHT22;17580;50.850;4.504;2022-10-31T10:21:28;15.70;99.90
10192;DHT22;17580;50.850;4.504;2022-10-31T10:24:09;15.80;99.90
10192;DHT22;17580;50.850;4.504;2022-10-31T10:26:41;15.80;99.90
10192;DHT22;17580;50.850;4.504;2022-10-31T10:29:23;15.90;99.90
10192;DHT22;17580;50.850;4.504;2022-10-31T10:31:52;16.00;99.90
10192;DHT22;17580;50.850;4.504;2022-10-31T10:34:22;16.00;99.90
10192;DHT22;17580;50.850;4.504;2022-10-31T10:36:54;16.10;99.90
10192;DHT22;17580;50.850;4.504;2022-10-31T10:39:25;16.10;99.90
10192;DHT22;17580;50.850;4.504;2022-10-31T10:41:55;16.00;99.90
10192;DHT22;17580;50.850;4.504;2022-10-31T10:44:45;16.00;99.90
10192;DHT22;17580;50.850;4.504;2022-10-31T10:47:37;16.10;99.90
10192;DHT22;17580;50.850;4.504;2022-10-31T10:50:12;16.30;99.90
10192;DHT22;17580;50.850;4.504;2022-10-31T10:52:48;16.40;99.90
10192;DHT22;17580;50.850;4.504;2022-10-31T10:55:26;16.50;99.90
10192;DHT22;17580;50.850;4.504;2022-10-31T10:57:58;16.60;99.90
10192;DHT22;17580;50.850;4.504;2022-10-31T11:00:30;16.70;99.90
10192;DHT22;17580;50.850;4.504;2022-10-31T11:02:57;16.70;99.90
10192;DHT22;17580;50.850;4.504;2022-10-31T11:05:28;16.70;99.90
10192;DHT22;17580;50.850;4.504;2022-10-31T11:07:58;16.70;99.90
10192;DHT22;17580;50.850;4.504;2022-10-31T11:10:25;16.70;99.90
10192;DHT22;17580;50.850;4.504;2022-10-31T11:13:02;16.80;99.90
10192;DHT22;17580;50.850;4.504;2022-10-31T11:15:32;16.90;99.90
10192;DHT22;17580;50.850;4.504;2022-10-31T11:18:01;17.00;99.90
10192;DHT22;17580;50.850;4.504;2022-10-31T11:20:31;17.20;99.90
10192;DHT22;17580;50.850;4.504;2022-10-31T11:23:17;17.40;99.90
10192;DHT22;17580;50.850;4.504;2022-10-31T11:25:54;17.70;99.90
10192;DHT22;17580;50.850;4.504;2022-10-31T11:28:21;17.90;99.90
10192;DHT22;17580;50.850;4.504;2022-10-31T11:30:51;18.10;99.90
10192;DHT22;17580;50.850;4.504;2022-10-31T11:33:22;18.20;99.90
10192;DHT22;17580;50.850;4.504;2022-10-31T11:35:53;18.20;99.90
10192;DHT22;17580;50.850;4.504;2022-10-31T11:38:24;18.20;99.90
10192;DHT22;17580;50.850;4.504;2022-10-31T11:40:56;18.20;99.90
10192;DHT22;17580;50.850;4.504;2022-10-31T11:43:24;18.20;99.90
10192;DHT22;17580;50.850;4.504;2022-10-31T11:45:52;18.20;99.90
10192;DHT22;17580;50.850;4.504;2022-10-31T11:48:21;18.30;99.90
10192;DHT22;17580;50.850;4.504;2022-10-31T11:50:52;18.30;99.90
10192;DHT22;17580;50.850;4.504;2022-10-31T11:53:25;18.60;99.90
10192;DHT22;17580;50.850;4.504;2022-10-31T11:56:03;19.00;99.90
10192;DHT22;17580;50.850;4.504;2022-10-31T11:58:31;19.70;99.90
10192;DHT22;17580;50.850;4.504;2022-10-31T12:00:58;20.40;99.90
10192;DHT22;17580;50.850;4.504;2022-10-31T12:03:42;21.00;97.90
10192;DHT22;17580;50.850;4.504;2022-10-31T12:06:23;21.50;92.30
10192;DHT22;17580;50.850;4.504;2022-10-31T12:08:52;21.50;92.70
10192;DHT22;17580;50.850;4.504;2022-10-31T12:11:36;21.40;92.40
10192;DHT22;17580;50.850;4.504;2022-10-31T12:14:18;21.20;89.50
10192;DHT22;17580;50.850;4.504;2022-10-31T12:16:50;21.10;91.00
10192;DHT22;17580;50.850;4.504;2022-10-31T12:19:27;21.20;90.70
10192;DHT22;17580;50.850;4.504;2022-10-31T12:22:08;21.70;88.50
10192;DHT22;17580;50.850;4.504;2022-10-31T12:24:50;22.50;83.20
10192;DHT22;17580;50.850;4.504;2022-10-31T12:27:28;22.80;80.60
10192;DHT22;17580;50.850;4.504;2022-10-31T12:30:09;22.90;78.30
10192;DHT22;17580;50.850;4.504;2022-10-31T12:32:47;23.10;77.20
10192;DHT22;17580;50.850;4.504;2022-10-31T12:35:31;23.40;74.40
10192;DHT22;17580;50.850;4.504;2022-10-31T12:38:15;23.30;69.60
10192;DHT22;17580;50.850;4.504;2022-10-31T12:40:57;23.30;66.70
10192;DHT22;17580;50.850;4.504;2022-10-31T12:43:36;23.30;70.20
10192;DHT22;17580;50.850;4.504;2022-10-31T12:46:06;23.40;67.10
10192;DHT22;17580;50.850;4.504;2022-10-31T12:51:41;22.50;68.60
10192;DHT22;17580;50.850;4.504;2022-10-31T12:54:31;21.60;72.60
10192;DHT22;17580;50.850;4.504;2022-10-31T12:57:08;20.90;79.50
10192;DHT22;17580;50.850;4.504;2022-10-31T12:59:42;20.60;81.00
10192;DHT22;17580;50.850;4.504;2022-10-31T13:02:16;20.40;83.00
10192;DHT22;17580;50.850;4.504;2022-10-31T13:04:48;20.10;84.40
10192;DHT22;17580;50.850;4.504;2022-10-31T13:07:20;20.10;86.40
10192;DHT22;17580;50.850;4.504;2022-10-31T13:09:54;19.90;91.00
10192;DHT22;17580;50.850;4.504;2022-10-31T13:12:25;19.80;92.40
10192;DHT22;17580;50.850;4.504;2022-10-31T13:14:56;19.90;94.10
10192;DHT22;17580;50.850;4.504;2022-10-31T13:17:28;20.80;91.50
10192;DHT22;17580;50.850;4.504;2022-10-31T13:20:14;21.80;83.30
10192;DHT22;17580;50.850;4.504;2022-10-31T13:22:45;22.50;77.30
10192;DHT22;17580;50.850;4.504;2022-10-31T13:25:15;22.60;76.20
10192;DHT22;17580;50.850;4.504;2022-10-31T13:27:52;22.70;75.60
10192;DHT22;17580;50.850;4.504;2022-10-31T13:30:23;22.80;73.70
10192;DHT22;17580;50.850;4.504;2022-10-31T13:32:52;22.80;72.80
10192;DHT22;17580;50.850;4.504;2022-10-31T13:35:28;22.80;72.10
10192;DHT22;17580;50.850;4.504;2022-10-31T13:38:11;22.60;72.50
10192;DHT22;17580;50.850;4.504;2022-10-31T13:40:46;22.60;72.90
10192;DHT22;17580;50.850;4.504;2022-10-31T13:43:23;22.50;73.60
10192;DHT22;17580;50.850;4.504;2022-10-31T13:45:52;22.20;73.80
10192;DHT22;17580;50.850;4.504;2022-10-31T13:48:36;21.90;74.30
10192;DHT22;17580;50.850;4.504;2022-10-31T13:51:06;21.60;76.40
10192;DHT22;17580;50.850;4.504;2022-10-31T13:53:43;21.20;76.10
10192;DHT22;17580;50.850;4.504;2022-10-31T13:56:20;21.00;76.30
10192;DHT22;17580;50.850;4.504;2022-10-31T13:59:05;20.80;77.50
10192;DHT22;17580;50.850;4.504;2022-10-31T14:01:47;20.70;79.60
10192;DHT22;17580;50.850;4.504;2022-10-31T14:04:16;20.60;78.70
10192;DHT22;17580;50.850;4.504;2022-10-31T14:06:52;20.50;78.10
10192;DHT22;17580;50.850;4.504;2022-10-31T14:09:23;20.40;76.50
10192;DHT22;17580;50.850;4.504;2022-10-31T14:11:51;20.30;76.80
10192;DHT22;17580;50.850;4.504;2022-10-31T14:14:21;20.20;75.80
10192;DHT22;17580;50.850;4.504;2022-10-31T14:16:55;20.10;76.80
10192;DHT22;17580;50.850;4.504;2022-10-31T14:19:23;20.10;79.50
10192;DHT22;17580;50.850;4.504;2022-10-31T14:21:50;20.10;79.50
10192;DHT22;17580;50.850;4.504;2022-10-31T14:24:33;20.00;82.50
10192;DHT22;17580;50.850;4.504;2022-10-31T14:27:02;19.90;83.70
10192;DHT22;17580;50.850;4.504;2022-10-31T14:29:32;19.80;84.40
10192;DHT22;17580;50.850;4.504;2022-10-31T14:32:06;19.70;84.50
10192;DHT22;17580;50.850;4.504;2022-10-31T14:34:38;19.60;85.30
10192;DHT22;17580;50.850;4.504;2022-10-31T14:40:24;19.50;91.30
10192;DHT22;17580;50.850;4.504;2022-10-31T14:43:15;19.40;91.40
10192;DHT22;17580;50.850;4.504;2022-10-31T14:45:50;19.30;92.40
10192;DHT22;17580;50.850;4.504;2022-10-31T14:48:31;19.20;93.50
10192;DHT22;17580;50.850;4.504;2022-10-31T14:51:01;19.10;94.50
10192;DHT22;17580;50.850;4.504;2022-10-31T14:53:31;19.00;95.60
10192;DHT22;17580;50.850;4.504;2022-10-31T14:55:59;18.90;96.60
10192;DHT22;17580;50.850;4.504;2022-10-31T14:58:32;18.80;97.30
10192;DHT22;17580;50.850;4.504;2022-10-31T15:01:02;18.70;99.20
10192;DHT22;17580;50.850;4.504;2022-10-31T15:03:32;18.70;99.90
10192;DHT22;17580;50.850;4.504;2022-10-31T15:06:02;18.70;99.90
10192;DHT22;17580;50.850;4.504;2022-10-31T15:08:37;18.60;99.90
10192;DHT22;17580;50.850;4.504;2022-10-31T15:11:12;18.50;99.90
10192;DHT22;17580;50.850;4.504;2022-10-31T15:13:44;18.50;99.90
10192;DHT22;17580;50.850;4.504;2022-10-31T15:16:15;18.40;99.90
10192;DHT22;17580;50.850;4.504;2022-10-31T15:18:52;18.40;99.90
10192;DHT22;17580;50.850;4.504;2022-10-31T15:21:21;18.30;99.90
10192;DHT22;17580;50.850;4.504;2022-10-31T15:23:51;18.30;99.90
10192;DHT22;17580;50.850;4.504;2022-10-31T15:26:20;18.20;99.90
10192;DHT22;17580;50.850;4.504;2022-10-31T15:28:58;18.10;99.90
10192;DHT22;17580;50.850;4.504;2022-10-31T15:31:27;18.00;99.90
10192;DHT22;17580;50.850;4.504;2022-10-31T15:33:55;17.90;99.90
10192;DHT22;17580;50.850;4.504;2022-10-31T15:36:25;17.80;99.90
10192;DHT22;17580;50.850;4.504;2022-10-31T15:38:55;17.80;99.90
10192;DHT22;17580;50.850;4.504;2022-10-31T15:41:27;17.70;99.90
10192;DHT22;17580;50.850;4.504;2022-10-31T15:43:59;17.70;99.90
10192;DHT22;17580;50.850;4.504;2022-10-31T15:46:29;17.60;99.90
10192;DHT22;17580;50.850;4.504;2022-10-31T15:48:57;17.50;99.90
10192;DHT22;17580;50.850;4.504;2022-10-31T15:51:32;17.40;99.90
10192;DHT22;17580;50.850;4.504;2022-10-31T15:54:00;17.40;99.90
10192;DHT22;17580;50.850;4.504;2022-10-31T15:56:29;17.30;99.90
10192;DHT22;17580;50.850;4.504;2022-10-31T15:58:58;17.20;99.90
10192;DHT22;17580;50.850;4.504;2022-10-31T16:01:27;17.20;99.90
10192;DHT22;17580;50.850;4.504;2022-10-31T16:04:01;17.10;99.90
10192;DHT22;17580;50.850;4.504;2022-10-31T16:06:33;17.10;99.90
10192;DHT22;17580;50.850;4.504;2022-10-31T16:09:01;17.10;99.90